sensor_id;sensor_type;location;lat;lon;timestamp;pressure;altitude;pressure_sealevel;temperature;humidity
7050;BME280;22263;52.260;10.548;2023-07-29T00:00:29;99749.91;;;20.30;100.00
7050;BME280;22263;52.260;10.548;2023-07-29T00:03:01;99742.41;;;20.27;100.00
7050;BME280;22263;52.260;10.548;2023-07-29T00:05:31;99741.63;;;20.26;100.00
7050;BME280;22263;52.260;10.548;2023-07-29T00:08:00;99737.84;;;20.20;100.00
7050;BME280;22263;52.260;10.548;2023-07-29T00:10:31;99737.22;;;20.16;100.00
7050;BME280;22263;52.260;10.548;2023-07-29T00:13:04;99747.53;;;20.19;100.00
7050;BME280;22263;52.260;10.548;2023-07-29T00:15:34;99745.97;;;20.18;100.00
7050;BME280;22263;52.260;10.548;2023-07-29T00:18:04;99747.66;;;20.16;100.00
7050;BME280;22263;52.260;10.548;2023-07-29T00:20:33;99754.50;;;20.06;100.00
7050;BME280;22263;52.260;10.548;2023-07-29T00:23:03;99751.38;;;20.03;100.00
7050;BME280;22263;52.260;10.548;2023-07-29T00:25:33;99750.44;;;20.07;100.00
7050;BME280;22263;52.260;10.548;2023-07-29T00:28:05;99750.63;;;20.12;100.00
7050;BME280;22263;52.260;10.548;2023-07-29T00:30:35;99751.25;;;20.16;100.00
7050;BME280;22263;52.260;10.548;2023-07-29T00:33:05;99749.25;;;20.17;100.00
7050;BME280;22263;52.260;10.548;2023-07-29T00:35:37;99746.25;;;20.11;100.00
7050;BME280;22263;52.260;10.548;2023-07-29T00:38:07;99748.44;;;20.16;100.00
7050;BME280;22263;52.260;10.548;2023-07-29T00:40:37;99744.09;;;20.24;100.00
7050;BME280;22263;52.260;10.548;2023-07-29T00:43:10;99742.09;;;20.25;100.00
7050;BME280;22263;52.260;10.548;2023-07-29T00:45:42;99746.63;;;20.22;100.00
7050;BME280;22263;52.260;10.548;2023-07-29T00:48:13;99746.63;;;20.22;100.00
7050;BME280;22263;52.260;10.548;2023-07-29T00:50:44;99737.22;;;20.16;100.00
7050;BME280;22263;52.260;10.548;2023-07-29T00:53:13;99743.81;;;20.22;100.00
7050;BME280;22263;52.260;10.548;2023-07-29T00:55:46;99750.81;;;20.18;100.00
7050;BME280;22263;52.260;10.548;2023-07-29T00:58:19;99752.03;;;20.17;100.00
7050;BME280;22263;52.260;10.548;2023-07-29T01:00:50;99748.78;;;20.18;100.00
7050;BME280;22263;52.260;10.548;2023-07-29T01:03:22;99749.09;;;20.20;100.00
7050;BME280;22263;52.260;10.548;2023-07-29T01:06:04;99750.28;;;20.10;100.00
7050;BME280;22263;52.260;10.548;2023-07-29T01:08:42;99743.63;;;20.17;100.00
7050;BME280;22263;52.260;10.548;2023-07-29T01:11:25;99744.88;;;20.16;100.00
7050;BME280;22263;52.260;10.548;2023-07-29T01:14:05;99734.88;;;20.15;100.00
7050;BME280;22263;52.260;10.548;2023-07-29T01:16:42;99733.44;;;20.10;100.00
7050;BME280;22263;52.260;10.548;2023-07-29T01:19:26;99736.28;;;20.19;100.00
7050;BME280;22263;52.260;10.548;2023-07-29T01:22:02;99735.19;;;20.17;100.00
7050;BME280;22263;52.260;10.548;2023-07-29T01:24:36;99727.56;;;20.17;100.00
7050;BME280;22263;52.260;10.548;2023-07-29T01:27:06;99733.34;;;20.23;100.00
7050;BME280;22263;52.260;10.548;2023-07-29T01:29:36;99730.53;;;20.14;100.00
7050;BME280;22263;52.260;10.548;2023-07-29T01:32:09;99723.97;;;20.17;100.00
7050;BME280;22263;52.260;10.548;2023-07-29T01:34:45;99718.03;;;20.15;100.00
7050;BME280;22263;52.260;10.548;2023-07-29T01:37:22;99723.00;;;20.11;100.00
7050;BME280;22263;52.260;10.548;2023-07-29T01:39:59;99721.28;;;20.04;100.00
7050;BME280;22263;52.260;10.548;2023-07-29T01:42:29;99712.81;;;19.95;100.00
7050;BME280;22263;52.260;10.548;2023-07-29T01:44:59;99708.75;;;19.96;100.00
7050;BME280;22263;52.260;10.548;2023-07-29T01:47:30;99700.28;;;19.87;100.00
7050;BME280;22263;52.260;10.548;2023-07-29T01:50:00;99709.31;;;19.82;100.00
7050;BME280;22263;52.260;10.548;2023-07-29T01:52:30;99703.53;;;19.76;100.00
7050;BME280;22263;52.260;10.548;2023-07-29T01:55:03;99699.03;;;19.79;100.00
7050;BME280;22263;52.260;10.548;2023-07-29T01:57:33;99705.22;;;19.74;100.00
7050;BME280;22263;52.260;10.548;2023-07-29T02:00:04;99709.03;;;19.58;100.00
7050;BME280;22263;52.260;10.548;2023-07-29T02:02:42;99698.59;;;19.58;100.00
7050;BME280;22263;52.260;10.548;2023-07-29T02:05:12;99717.00;;;19.59;100.00
7050;BME280;22263;52.260;10.548;2023-07-29T02:07:42;99705.19;;;19.65;100.00
7050;BME280;22263;52.260;10.548;2023-07-29T02:10:16;99698.97;;;19.70;100.00
7050;BME280;22263;52.260;10.548;2023-07-29T02:12:46;99697.41;;;19.69;100.00
7050;BME280;22263;52.260;10.548;2023-07-29T02:15:16;99699.06;;;19.57;100.00
7050;BME280;22263;52.260;10.548;2023-07-29T02:17:45;99701.69;;;19.51;100.00
7050;BME280;22263;52.260;10.548;2023-07-29T02:20:15;99712.19;;;19.60;100.00
7050;BME280;22263;52.260;10.548;2023-07-29T02:22:45;99694.75;;;19.65;100.00
7050;BME280;22263;52.260;10.548;2023-07-29T02:25:18;99712.69;;;19.68;100.00
7050;BME280;22263;52.260;10.548;2023-07-29T02:27:48;99709.03;;;19.58;100.00
7050;BME280;22263;52.260;10.548;2023-07-29T02:30:18;99717.16;;;19.56;100.00
7050;BME280;22263;52.260;10.548;2023-07-29T02:32:48;99714.94;;;19.51;100.00
7050;BME280;22263;52.260;10.548;2023-07-29T02:35:18;99718.97;;;19.50;100.00
7050;BME280;22263;52.260;10.548;2023-07-29T02:37:48;99709.59;;;19.44;100.00
7050;BME280;22263;52.260;10.548;2023-07-29T02:40:23;99721.25;;;19.42;100.00
7050;BME280;22263;52.260;10.548;2023-07-29T02:42:53;99716.63;;;19.48;100.00
7050;BME280;22263;52.260;10.548;2023-07-29T02:45:23;99709.78;;;19.49;100.00
7050;BME280;22263;52.260;10.548;2023-07-29T02:47:53;99709.59;;;19.44;100.00
7050;BME280;22263;52.260;10.548;2023-07-29T02:50:23;99723.16;;;19.45;100.00
7050;BME280;22263;52.260;10.548;2023-07-29T02:52:53;99725.09;;;19.36;100.00
7050;BME280;22263;52.260;10.548;2023-07-29T02:55:26;99727.75;;;19.39;100.00
7050;BME280;22263;52.260;10.548;2023-07-29T02:57:56;99723.38;;;19.38;100.00
7050;BME280;22263;52.260;10.548;2023-07-29T03:00:26;99722.78;;;19.43;100.00
7050;BME280;22263;52.260;10.548;2023-07-29T03:02:56;99712.91;;;19.51;100.00
7050;BME280;22263;52.260;10.548;2023-07-29T03:05:27;99715.59;;;19.55;100.00
7050;BME280;22263;52.260;10.548;2023-07-29T03:07:58;99709.81;;;19.58;100.00
7050;BME280;22263;52.260;10.548;2023-07-29T03:10:30;99701.41;;;19.58;100.00
7050;BME280;22263;52.260;10.548;2023-07-29T03:13:01;99697.31;;;19.50;100.00
7050;BME280;22263;52.260;10.548;2023-07-29T03:15:31;99691.75;;;19.59;100.00
7050;BME280;22263;52.260;10.548;2023-07-29T03:18:03;99700.38;;;19.65;100.00
7050;BME280;22263;52.260;10.548;2023-07-29T03:20:34;99701.44;;;19.68;100.00
7050;BME280;22263;52.260;10.548;2023-07-29T03:23:03;99697.41;;;19.69;100.00
7050;BME280;22263;52.260;10.548;2023-07-29T03:25:36;99696.84;;;19.83;100.00
7050;BME280;22263;52.260;10.548;2023-07-29T03:28:06;99694.97;;;19.80;100.00
7050;BME280;22263;52.260;10.548;2023-07-29T03:30:35;99700.56;;;19.71;100.00
7050;BME280;22263;52.260;10.548;2023-07-29T03:33:06;99699.97;;;19.54;100.00
7050;BME280;22263;52.260;10.548;2023-07-29T03:35:36;99701.88;;;19.57;100.00
7050;BME280;22263;52.260;10.548;2023-07-29T03:38:09;99697.00;;;19.48;100.00
7050;BME280;22263;52.260;10.548;2023-07-29T03:40:42;99705.78;;;19.59;100.00
7050;BME280;22263;52.260;10.548;2023-07-29T03:43:12;99701.41;;;19.58;100.00
7050;BME280;22263;52.260;10.548;2023-07-29T03:45:42;99711.41;;;19.59;100.00
7050;BME280;22263;52.260;10.548;2023-07-29T03:48:12;99689.88;;;19.56;100.00
7050;BME280;22263;52.260;10.548;2023-07-29T03:50:42;99695.53;;;19.66;100.00
7050;BME280;22263;52.260;10.548;2023-07-29T03:53:12;99689.00;;;19.69;100.00
7050;BME280;22263;52.260;10.548;2023-07-29T03:55:44;99685.09;;;19.66;100.00
7050;BME280;22263;52.260;10.548;2023-07-29T03:58:14;99683.84;;;19.67;100.00
7050;BME280;22263;52.260;10.548;2023-07-29T04:00:44;99679.97;;;19.74;100.00
7050;BME280;22263;52.260;10.548;2023-07-29T04:03:17;99676.53;;;19.70;100.00
7050;BME280;22263;52.260;10.548;2023-07-29T04:05:48;99672.34;;;19.74;100.00
7050;BME280;22263;52.260;10.548;2023-07-29T04:08:18;99671.25;;;19.81;100.00
7050;BME280;22263;52.260;10.548;2023-07-29T04:10:51;99675.19;;;19.83;100.00
7050;BME280;22263;52.260;10.548;2023-07-29T04:13:21;99675.03;;;19.87;100.00
7050;BME280;22263;52.260;10.548;2023-07-29T04:15:51;99681.78;;;19.89;100.00
7050;BME280;22263;52.260;10.548;2023-07-29T04:18:24;99679.44;;;19.97;100.00
7050;BME280;22263;52.260;10.548;2023-07-29T04:20:54;99684.75;;;19.95;100.00
7050;BME280;22263;52.260;10.548;2023-07-29T04:23:23;99678.38;;;20.03;100.00
7050;BME280;22263;52.260;10.548;2023-07-29T04:25:57;99674.66;;;20.07;100.00
7050;BME280;22263;52.260;10.548;2023-07-29T04:28:27;99668.41;;;20.12;100.00
7050;BME280;22263;52.260;10.548;2023-07-29T04:30:57;99665.63;;;20.12;100.00
7050;BME280;22263;52.260;10.548;2023-07-29T04:33:28;99665.00;;;20.17;100.00
7050;BME280;22263;52.260;10.548;2023-07-29T04:36:03;99670.16;;;20.09;100.00
7050;BME280;22263;52.260;10.548;2023-07-29T04:38:34;99681.38;;;20.09;100.00
7050;BME280;22263;52.260;10.548;2023-07-29T04:41:06;99675.44;;;20.16;100.00
7050;BME280;22263;52.260;10.548;2023-07-29T04:43:36;99670.16;;;20.18;100.00
7050;BME280;22263;52.260;10.548;2023-07-29T04:46:07;99661.13;;;20.23;100.00
7050;BME280;22263;52.260;10.548;2023-07-29T04:48:38;99643.34;;;20.26;100.00
7050;BME280;22263;52.260;10.548;2023-07-29T04:51:07;99646.00;;;20.30;100.00
7050;BME280;22263;52.260;10.548;2023-07-29T04:53:39;99635.56;;;20.30;100.00
7050;BME280;22263;52.260;10.548;2023-07-29T04:56:15;99642.75;;;20.40;100.00
7050;BME280;22263;52.260;10.548;2023-07-29T04:58:45;99645.25;;;20.38;100.00
7050;BME280;22263;52.260;10.548;2023-07-29T05:01:15;99653.38;;;20.45;100.00
7050;BME280;22263;52.260;10.548;2023-07-29T05:03:46;99647.44;;;20.43;100.00
7050;BME280;22263;52.260;10.548;2023-07-29T05:06:16;99643.56;;;20.50;100.00
7050;BME280;22263;52.260;10.548;2023-07-29T05:08:46;99641.22;;;20.58;100.00
7050;BME280;22263;52.260;10.548;2023-07-29T05:11:18;99635.13;;;20.68;100.00
7050;BME280;22263;52.260;10.548;2023-07-29T05:13:48;99630.91;;;20.64;100.00
7050;BME280;22263;52.260;10.548;2023-07-29T05:16:18;99633.72;;;20.82;100.00
7050;BME280;22263;52.260;10.548;2023-07-29T05:18:48;99634.50;;;20.73;100.00
7050;BME280;22263;52.260;10.548;2023-07-29T05:21:18;99638.09;;;20.83;100.00
7050;BME280;22263;52.260;10.548;2023-07-29T05:23:48;99634.03;;;20.84;100.00
7050;BME280;22263;52.260;10.548;2023-07-29T05:26:20;99637.31;;;20.82;100.00
7050;BME280;22263;52.260;10.548;2023-07-29T05:28:50;99633.59;;;20.76;100.00
7050;BME280;22263;52.260;10.548;2023-07-29T05:31:19;99632.47;;;20.92;100.00
7050;BME280;22263;52.260;10.548;2023-07-29T05:33:49;99639.16;;;21.04;100.00
7050;BME280;22263;52.260;10.548;2023-07-29T05:36:19;99625.09;;;21.13;100.00
7050;BME280;22263;52.260;10.548;2023-07-29T05:38:49;99626.34;;;21.12;100.00
7050;BME280;22263;52.260;10.548;2023-07-29T05:41:22;99617.13;;;21.20;100.00
7050;BME280;22263;52.260;10.548;2023-07-29T05:43:52;99616.94;;;21.33;100.00
7050;BME280;22263;52.260;10.548;2023-07-29T05:46:22;99619.91;;;21.39;100.00
7050;BME280;22263;52.260;10.548;2023-07-29T05:48:53;99623.38;;;21.24;100.00
7050;BME280;22263;52.260;10.548;2023-07-29T05:51:23;99617.13;;;21.20;100.00
7050;BME280;22263;52.260;10.548;2023-07-29T05:53:53;99629.00;;;21.34;100.00
7050;BME280;22263;52.260;10.548;2023-07-29T05:56:25;99625.53;;;21.39;100.00
7050;BME280;22263;52.260;10.548;2023-07-29T05:58:55;99620.56;;;21.15;100.00
7050;BME280;22263;52.260;10.548;2023-07-29T06:01:25;99623.53;;;21.03;100.00
7050;BME280;22263;52.260;10.548;2023-07-29T06:03:55;99628.41;;;20.84;100.00
7050;BME280;22263;52.260;10.548;2023-07-29T06:06:25;99638.88;;;20.65;100.00
7050;BME280;22263;52.260;10.548;2023-07-29T06:08:55;99639.66;;;20.48;100.00
7050;BME280;22263;52.260;10.548;2023-07-29T06:11:28;99654.00;;;20.31;100.00
7050;BME280;22263;52.260;10.548;2023-07-29T06:13:58;99658.25;;;20.05;100.00
7050;BME280;22263;52.260;10.548;2023-07-29T06:16:27;99669.47;;;19.96;100.00
7050;BME280;22263;52.260;10.548;2023-07-29T06:18:57;99671.91;;;19.76;100.00
7050;BME280;22263;52.260;10.548;2023-07-29T06:21:27;99683.44;;;19.78;100.00
7050;BME280;22263;52.260;10.548;2023-07-29T06:23:57;99682.16;;;19.70;100.00
7050;BME280;22263;52.260;10.548;2023-07-29T06:26:29;99692.06;;;19.62;100.00
7050;BME280;22263;52.260;10.548;2023-07-29T06:28:59;99695.34;;;19.60;100.00
7050;BME280;22263;52.260;10.548;2023-07-29T06:31:29;99706.44;;;19.64;100.00
7050;BME280;22263;52.260;10.548;2023-07-29T06:33:59;99705.44;;;19.57;100.00
7050;BME280;22263;52.260;10.548;2023-07-29T06:36:29;99717.94;;;19.56;100.00
7050;BME280;22263;52.260;10.548;2023-07-29T06:38:59;99724.72;;;19.46;100.00
7050;BME280;22263;52.260;10.548;2023-07-29T06:41:31;99722.00;;;19.43;100.00
7050;BME280;22263;52.260;10.548;2023-07-29T06:44:03;99726.84;;;19.42;100.00
7050;BME280;22263;52.260;10.548;2023-07-29T06:46:33;99724.06;;;19.42;100.00
7050;BME280;22263;52.260;10.548;2023-07-29T06:49:04;99712.84;;;19.42;100.00
7050;BME280;22263;52.260;10.548;2023-07-29T06:51:34;99714.06;;;19.41;100.00
7050;BME280;22263;52.260;10.548;2023-07-29T06:54:04;99718.09;;;19.40;100.00
7050;BME280;22263;52.260;10.548;2023-07-29T06:56:36;99713.44;;;19.37;100.00
7050;BME280;22263;52.260;10.548;2023-07-29T06:59:06;99716.22;;;19.37;100.00
7050;BME280;22263;52.260;10.548;2023-07-29T07:01:36;99715.09;;;19.35;100.00
7050;BME280;22263;52.260;10.548;2023-07-29T07:04:06;99697.97;;;19.33;100.00
7050;BME280;22263;52.260;10.548;2023-07-29T07:06:35;99694.69;;;19.34;100.00
7050;BME280;22263;52.260;10.548;2023-07-29T07:09:05;99704.03;;;19.31;100.00
7050;BME280;22263;52.260;10.548;2023-07-29T07:11:38;99715.19;;;19.22;100.00
7050;BME280;22263;52.260;10.548;2023-07-29T07:14:08;99726.84;;;19.21;100.00
7050;BME280;22263;52.260;10.548;2023-07-29T07:16:37;99718.38;;;19.11;100.00
7050;BME280;22263;52.260;10.548;2023-07-29T07:19:07;99722.16;;;19.17;100.00
7050;BME280;22263;52.260;10.548;2023-07-29T07:21:37;99723.25;;;19.20;100.00
7050;BME280;22263;52.260;10.548;2023-07-29T07:24:07;99720.78;;;19.22;100.00
7050;BME280;22263;52.260;10.548;2023-07-29T07:26:39;99715.25;;;19.31;100.00
7050;BME280;22263;52.260;10.548;2023-07-29T07:29:09;99717.25;;;19.31;100.00
7050;BME280;22263;52.260;10.548;2023-07-29T07:31:39;99719.72;;;19.29;100.00
7050;BME280;22263;52.260;10.548;2023-07-29T07:34:12;99718.06;;;19.31;100.00
7050;BME280;22263;52.260;10.548;2023-07-29T07:36:42;99716.47;;;19.30;100.00
7050;BME280;22263;52.260;10.548;2023-07-29T07:39:11;99722.16;;;19.39;100.00
7050;BME280;22263;52.260;10.548;2023-07-29T07:41:44;99706.50;;;19.29;100.00
7050;BME280;22263;52.260;10.548;2023-07-29T07:44:13;99708.13;;;19.39;100.00
7050;BME280;22263;52.260;10.548;2023-07-29T07:46:45;99699.00;;;19.48;100.00
7050;BME280;22263;52.260;10.548;2023-07-29T07:49:14;99703.91;;;19.56;100.00
7050;BME280;22263;52.260;10.548;2023-07-29T07:51:44;99692.03;;;19.52;100.00
7050;BME280;22263;52.260;10.548;2023-07-29T07:54:14;99698.66;;;19.68;100.00
7050;BME280;22263;52.260;10.548;2023-07-29T07:56:46;99697.41;;;19.69;100.00
7050;BME280;22263;52.260;10.548;2023-07-29T07:59:16;99685.81;;;19.57;100.00
7050;BME280;22263;52.260;10.548;2023-07-29T08:01:46;99682.94;;;19.70;100.00
7050;BME280;22263;52.260;10.548;2023-07-29T08:04:16;99680.03;;;19.83;100.00
7050;BME280;22263;52.260;10.548;2023-07-29T08:06:46;99676.13;;;19.80;100.00
7050;BME280;22263;52.260;10.548;2023-07-29T08:09:15;99681.13;;;19.85;100.00
7050;BME280;22263;52.260;10.548;2023-07-29T08:11:48;99670.25;;;20.06;100.00
7050;BME280;22263;52.260;10.548;2023-07-29T08:14:17;99670.25;;;20.45;100.00
7050;BME280;22263;52.260;10.548;2023-07-29T08:16:47;99666.81;;;20.87;100.00
7050;BME280;22263;52.260;10.548;2023-07-29T08:19:17;99657.16;;;20.79;100.00
7050;BME280;22263;52.260;10.548;2023-07-29T08:21:48;99657.78;;;21.19;100.00
7050;BME280;22263;52.260;10.548;2023-07-29T08:24:18;99648.59;;;21.61;100.00
7050;BME280;22263;52.260;10.548;2023-07-29T08:26:50;99639.16;;;21.73;100.00
7050;BME280;22263;52.260;10.548;2023-07-29T08:29:20;99629.34;;;21.92;100.00
7050;BME280;22263;52.260;10.548;2023-07-29T08:31:50;99619.28;;;22.09;100.00
7050;BME280;22263;52.260;10.548;2023-07-29T08:34:20;99613.13;;;22.20;100.00
7050;BME280;22263;52.260;10.548;2023-07-29T08:36:49;99607.31;;;22.24;100.00
7050;BME280;22263;52.260;10.548;2023-07-29T08:39:19;99593.47;;;22.35;100.00
7050;BME280;22263;52.260;10.548;2023-07-29T08:41:57;99603.03;;;22.90;100.00
7050;BME280;22263;52.260;10.548;2023-07-29T08:44:31;99577.75;;;23.11;100.00
7050;BME280;22263;52.260;10.548;2023-07-29T08:47:05;99575.59;;;22.76;100.00
7050;BME280;22263;52.260;10.548;2023-07-29T08:49:35;99580.25;;;22.79;100.00
7050;BME280;22263;52.260;10.548;2023-07-29T08:52:06;99576.25;;;22.71;100.00
7050;BME280;22263;52.260;10.548;2023-07-29T08:54:36;99576.13;;;22.66;100.00
7050;BME280;22263;52.260;10.548;2023-07-29T08:57:09;99585.00;;;22.49;100.00
7050;BME280;22263;52.260;10.548;2023-07-29T08:59:40;99576.19;;;22.18;100.00
7050;BME280;22263;52.260;10.548;2023-07-29T09:02:10;99582.03;;;22.14;100.00
7050;BME280;22263;52.260;10.548;2023-07-29T09:04:40;99587.41;;;21.70;100.00
7050;BME280;22263;52.260;10.548;2023-07-29T09:07:10;99599.91;;;22.26;100.00
7050;BME280;22263;52.260;10.548;2023-07-29T09:09:39;99582.84;;;22.30;100.00
7050;BME280;22263;52.260;10.548;2023-07-29T09:12:12;99590.03;;;22.31;100.00
7050;BME280;22263;52.260;10.548;2023-07-29T09:14:42;99588.69;;;22.41;100.00
7050;BME280;22263;52.260;10.548;2023-07-29T09:17:12;99611.44;;;22.13;100.00
7050;BME280;22263;52.260;10.548;2023-07-29T09:19:42;99606.19;;;21.97;100.00
7050;BME280;22263;52.260;10.548;2023-07-29T09:22:17;99610.06;;;22.09;100.00
7050;BME280;22263;52.260;10.548;2023-07-29T09:24:48;99617.47;;;21.97;100.00
7050;BME280;22263;52.260;10.548;2023-07-29T09:27:28;99623.78;;;21.83;100.00
7050;BME280;22263;52.260;10.548;2023-07-29T09:29:59;99617.22;;;21.86;100.00
7050;BME280;22263;52.260;10.548;2023-07-29T09:32:30;99614.22;;;21.90;100.00
7050;BME280;22263;52.260;10.548;2023-07-29T09:35:00;99615.63;;;21.85;100.00
7050;BME280;22263;52.260;10.548;2023-07-29T09:37:30;99599.03;;;21.87;100.00
7050;BME280;22263;52.260;10.548;2023-07-29T09:40:01;99594.94;;;21.97;100.00
7050;BME280;22263;52.260;10.548;2023-07-29T09:42:33;99589.25;;;22.30;100.00
7050;BME280;22263;52.260;10.548;2023-07-29T09:45:04;99565.97;;;22.59;100.00
7050;BME280;22263;52.260;10.548;2023-07-29T09:47:34;99560.16;;;22.48;100.00
7050;BME280;22263;52.260;10.548;2023-07-29T09:50:05;99566.09;;;22.26;100.00
7050;BME280;22263;52.260;10.548;2023-07-29T09:52:35;99580.25;;;22.41;100.00
7050;BME280;22263;52.260;10.548;2023-07-29T09:55:05;99593.41;;;22.20;100.00
7050;BME280;22263;52.260;10.548;2023-07-29T09:57:39;99592.69;;;22.10;100.00
7050;BME280;22263;52.260;10.548;2023-07-29T10:00:11;99583.13;;;22.32;100.00
7050;BME280;22263;52.260;10.548;2023-07-29T10:02:42;99578.59;;;22.34;100.00
7050;BME280;22263;52.260;10.548;2023-07-29T10:05:13;99571.69;;;22.11;100.00
7050;BME280;22263;52.260;10.548;2023-07-29T10:07:43;99577.06;;;22.48;100.00
7050;BME280;22263;52.260;10.548;2023-07-29T10:10:14;99585.66;;;22.68;100.00
7050;BME280;22263;52.260;10.548;2023-07-29T10:12:47;99582.91;;;22.83;100.00
7050;BME280;22263;52.260;10.548;2023-07-29T10:15:17;99577.16;;;23.21;100.00
7050;BME280;22263;52.260;10.548;2023-07-29T10:17:48;99575.22;;;23.77;100.00
7050;BME280;22263;52.260;10.548;2023-07-29T10:20:19;99568.16;;;23.67;100.00
7050;BME280;22263;52.260;10.548;2023-07-29T10:22:50;99572.19;;;23.80;100.00
7050;BME280;22263;52.260;10.548;2023-07-29T10:25:22;99571.94;;;23.99;100.00
7050;BME280;22263;52.260;10.548;2023-07-29T10:27:56;99576.25;;;24.14;100.00
7050;BME280;22263;52.260;10.548;2023-07-29T10:30:28;99560.81;;;25.33;100.00
7050;BME280;22263;52.260;10.548;2023-07-29T10:32:59;99555.09;;;26.50;100.00
7050;BME280;22263;52.260;10.548;2023-07-29T10:35:32;99549.03;;;26.20;100.00
7050;BME280;22263;52.260;10.548;2023-07-29T10:38:03;99555.69;;;25.63;100.00
7050;BME280;22263;52.260;10.548;2023-07-29T10:40:45;99557.41;;;24.92;100.00
7050;BME280;22263;52.260;10.548;2023-07-29T10:43:25;99555.31;;;24.21;100.00
7050;BME280;22263;52.260;10.548;2023-07-29T10:45:55;99549.91;;;24.03;100.00
7050;BME280;22263;52.260;10.548;2023-07-29T10:48:43;99556.09;;;23.86;100.00
7050;BME280;22263;52.260;10.548;2023-07-29T10:51:24;99545.38;;;24.11;100.00
7050;BME280;22263;52.260;10.548;2023-07-29T10:53:57;99537.03;;;24.42;100.00
7050;BME280;22263;52.260;10.548;2023-07-29T10:56:28;99535.56;;;24.72;100.00
7050;BME280;22263;52.260;10.548;2023-07-29T10:59:31;99532.16;;;25.20;100.00
7050;BME280;22263;52.260;10.548;2023-07-29T11:02:12;99534.94;;;26.36;100.00
7050;BME280;22263;52.260;10.548;2023-07-29T11:04:48;99521.94;;;26.19;100.00
7050;BME280;22263;52.260;10.548;2023-07-29T11:07:23;99515.41;;;25.53;100.00
7050;BME280;22263;52.260;10.548;2023-07-29T11:10:03;99514.97;;;24.92;100.00
7050;BME280;22263;52.260;10.548;2023-07-29T11:12:41;99515.44;;;25.16;100.00
7050;BME280;22263;52.260;10.548;2023-07-29T11:15:23;99507.72;;;25.17;100.00
7050;BME280;22263;52.260;10.548;2023-07-29T11:17:54;99494.94;;;25.27;100.00
7050;BME280;22263;52.260;10.548;2023-07-29T11:20:26;99495.34;;;25.51;100.00
7050;BME280;22263;52.260;10.548;2023-07-29T11:22:57;99501.63;;;25.67;100.00
7050;BME280;22263;52.260;10.548;2023-07-29T11:25:29;99502.19;;;25.39;100.00
7050;BME280;22263;52.260;10.548;2023-07-29T11:28:00;99511.66;;;24.99;100.00
7050;BME280;22263;52.260;10.548;2023-07-29T11:30:39;99512.38;;;24.94;100.00
7050;BME280;22263;52.260;10.548;2023-07-29T11:33:09;99513.34;;;24.60;100.00
7050;BME280;22263;52.260;10.548;2023-07-29T11:35:40;99521.72;;;24.28;100.00
7050;BME280;22263;52.260;10.548;2023-07-29T11:38:15;99526.66;;;23.73;100.00
7050;BME280;22263;52.260;10.548;2023-07-29T11:40:54;99533.44;;;23.81;100.00
7050;BME280;22263;52.260;10.548;2023-07-29T11:43:24;99537.03;;;23.32;100.00
7050;BME280;22263;52.260;10.548;2023-07-29T11:45:56;99532.41;;;23.14;100.00
7050;BME280;22263;52.260;10.548;2023-07-29T11:48:27;99547.69;;;22.93;100.00
7050;BME280;22263;52.260;10.548;2023-07-29T11:50:56;99542.03;;;22.93;100.00
7050;BME280;22263;52.260;10.548;2023-07-29T11:53:28;99523.13;;;23.98;100.00
7050;BME280;22263;52.260;10.548;2023-07-29T11:55:59;99515.69;;;25.98;100.00
7050;BME280;22263;52.260;10.548;2023-07-29T11:58:31;99489.91;;;27.50;100.00
7050;BME280;22263;52.260;10.548;2023-07-29T12:01:05;99500.88;;;27.92;100.00
7050;BME280;22263;52.260;10.548;2023-07-29T12:03:35;99506.53;;;28.14;100.00
7050;BME280;22263;52.260;10.548;2023-07-29T12:06:04;99499.03;;;28.99;100.00
7050;BME280;22263;52.260;10.548;2023-07-29T12:08:34;99503.72;;;28.50;100.00
7050;BME280;22263;52.260;10.548;2023-07-29T12:11:05;99505.66;;;28.77;100.00
7050;BME280;22263;52.260;10.548;2023-07-29T12:13:36;99513.94;;;28.29;100.00
7050;BME280;22263;52.260;10.548;2023-07-29T12:16:08;99517.28;;;27.03;100.00
7050;BME280;22263;52.260;10.548;2023-07-29T12:18:38;99502.28;;;26.80;100.00
7050;BME280;22263;52.260;10.548;2023-07-29T12:21:08;99511.63;;;26.10;100.00
7050;BME280;22263;52.260;10.548;2023-07-29T12:23:38;99516.59;;;25.36;100.00
7050;BME280;22263;52.260;10.548;2023-07-29T12:26:08;99520.41;;;25.27;100.00
7050;BME280;22263;52.260;10.548;2023-07-29T12:28:37;99517.94;;;24.83;100.00
7050;BME280;22263;52.260;10.548;2023-07-29T12:31:10;99522.53;;;24.81;100.00
7050;BME280;22263;52.260;10.548;2023-07-29T12:33:39;99514.88;;;25.49;100.00
7050;BME280;22263;52.260;10.548;2023-07-29T12:36:09;99517.22;;;25.93;100.00
7050;BME280;22263;52.260;10.548;2023-07-29T12:38:42;99506.69;;;26.81;100.00
7050;BME280;22263;52.260;10.548;2023-07-29T12:41:12;99516.72;;;26.65;100.00
7050;BME280;22263;52.260;10.548;2023-07-29T12:43:42;99508.97;;;26.60;100.00
7050;BME280;22263;52.260;10.548;2023-07-29T12:46:14;99508.22;;;26.82;100.00
7050;BME280;22263;52.260;10.548;2023-07-29T12:48:44;99500.00;;;27.28;100.00
7050;BME280;22263;52.260;10.548;2023-07-29T12:51:13;99504.88;;;27.39;100.00
7050;BME280;22263;52.260;10.548;2023-07-29T12:53:43;99500.84;;;28.03;100.00
7050;BME280;22263;52.260;10.548;2023-07-29T12:56:13;99505.84;;;27.86;97.15
7050;BME280;22263;52.260;10.548;2023-07-29T12:58:43;99509.38;;;28.14;95.39
7050;BME280;22263;52.260;10.548;2023-07-29T13:01:15;99506.50;;;28.20;89.36
7050;BME280;22263;52.260;10.548;2023-07-29T13:03:47;99510.81;;;26.85;93.82
7050;BME280;22263;52.260;10.548;2023-07-29T13:06:17;99517.53;;;27.55;93.65
7050;BME280;22263;52.260;10.548;2023-07-29T13:08:46;99521.66;;;27.31;93.33
7050;BME280;22263;52.260;10.548;2023-07-29T13:11:16;99521.44;;;27.24;83.68